createdAt,value
2023-01-28T00:00:50.227Z,94.26
2023-01-28T00:04:53.543Z,94.08
2023-01-28T00:08:57.723Z,94.35
2023-01-28T00:13:00.495Z,94.67
2023-01-28T00:17:05.849Z,95.29
2023-01-28T00:21:12.306Z,95.59
2023-01-28T00:25:16.837Z,95.54
2023-01-28T00:29:19.913Z,95.47
2023-01-28T00:33:22.737Z,94.81
2023-01-28T00:37:25.503Z,93.59
2023-01-28T00:41:30.803Z,89.03
2023-01-28T00:45:34.310Z,90.26
2023-01-28T00:49:37.071Z,90.18
2023-01-28T00:53:39.818Z,89.25
2023-01-28T00:57:44.972Z,89.62
2023-01-28T01:01:50.626Z,89.36
2023-01-28T01:05:53.365Z,89.30
2023-01-28T01:09:56.136Z,88.89
2023-01-28T01:14:05.327Z,88.97
2023-01-28T01:18:08.244Z,89.76
2023-01-28T01:22:11.077Z,89.40
2023-01-28T01:26:14.406Z,89.19
2023-01-28T01:30:18.818Z,88.76
2023-01-28T01:34:21.613Z,89.32
2023-01-28T01:38:25.229Z,89.00
2023-01-28T01:42:28.187Z,89.22
2023-01-28T01:46:37.252Z,88.79
2023-01-28T01:50:44.374Z,88.12
2023-01-28T01:54:49.976Z,87.56
2023-01-28T01:58:56.507Z,87.64
2023-01-28T02:03:01.123Z,87.67
2023-01-28T02:07:04.516Z,87.31
2023-01-28T02:11:09.225Z,87.19
2023-01-28T02:15:15.343Z,87.86
2023-01-28T02:19:23.352Z,87.94
2023-01-28T02:23:42.922Z,88.06
2023-01-28T02:28:10.576Z,88.22
2023-01-28T02:32:18.941Z,87.41
2023-01-28T02:36:28.942Z,88.00
2023-01-28T02:40:55.315Z,87.25
2023-01-28T02:44:59.729Z,87.16
2023-01-28T02:49:04.514Z,87.79
2023-01-28T02:53:39.139Z,87.89
2023-01-28T02:57:53.061Z,88.12
2023-01-28T03:02:05.031Z,88.28
2023-01-28T03:06:11.009Z,87.88
2023-01-28T03:10:17.343Z,87.70
2023-01-28T03:14:39.013Z,87.91
2023-01-28T03:19:05.735Z,87.50
2023-01-28T03:23:30.150Z,86.65
2023-01-28T03:27:58.005Z,87.11
2023-01-28T03:32:20.459Z,87.01
2023-01-28T03:36:42.743Z,87.19
2023-01-28T03:40:57.993Z,86.47
2023-01-28T03:45:04.113Z,86.20
2023-01-28T03:49:07.143Z,86.36
2023-01-28T03:53:16.916Z,86.00
2023-01-28T03:57:26.192Z,85.08
2023-01-28T04:01:29.220Z,85.20
2023-01-28T04:05:32.948Z,85.01
2023-01-28T04:09:38.391Z,84.47
2023-01-28T04:14:01.670Z,84.35
2023-01-28T04:18:14.933Z,84.71
2023-01-28T04:22:18.240Z,84.81
2023-01-28T04:26:22.503Z,84.82
2023-01-28T04:30:25.751Z,85.05
2023-01-28T04:34:57.693Z,84.89
2023-01-28T04:39:15.249Z,84.08
2023-01-28T04:43:30.459Z,84.73
2023-01-28T04:47:53.398Z,85.24
2023-01-28T04:52:14.440Z,84.73
2023-01-28T04:56:35.872Z,84.93
2023-01-28T05:00:42.345Z,84.20
2023-01-28T05:04:45.480Z,83.99
2023-01-28T05:09:01.331Z,84.44
2023-01-28T05:13:05.971Z,85.15
2023-01-28T05:17:10.569Z,85.15
2023-01-28T05:21:15.088Z,85.41
2023-01-28T05:25:19.256Z,85.65
2023-01-28T05:29:22.584Z,85.55
2023-01-28T05:33:26.834Z,84.83
2023-01-28T05:37:29.851Z,84.34
2023-01-28T05:41:33.330Z,84.09
2023-01-28T05:45:38.819Z,85.08
2023-01-28T05:49:47.318Z,85.19
2023-01-28T05:54:13.033Z,85.49
2023-01-28T05:58:15.863Z,85.67
2023-01-28T06:02:18.720Z,86.03
2023-01-28T06:06:24.207Z,86.34
2023-01-28T06:10:27.245Z,85.53
2023-01-28T06:14:31.085Z,84.83
2023-01-28T06:18:52.519Z,84.60
2023-01-28T06:22:56.807Z,85.18
2023-01-28T06:26:59.938Z,85.23
2023-01-28T06:31:02.851Z,85.45
2023-01-28T06:35:06.556Z,85.95
2023-01-28T06:39:10.941Z,84.86
2023-01-28T06:43:13.762Z,84.80
2023-01-28T06:47:16.513Z,85.22
2023-01-28T06:51:19.294Z,85.53
2023-01-28T06:55:23.406Z,85.81
2023-01-28T06:59:26.921Z,86.14
2023-01-28T07:03:29.715Z,86.20
2023-01-28T07:07:32.495Z,86.47
2023-01-28T07:11:36.678Z,86.49
2023-01-28T07:15:39.516Z,86.27
2023-01-28T07:19:42.313Z,85.97
2023-01-28T07:23:45.039Z,85.63
2023-01-28T07:27:54.072Z,85.39
2023-01-28T07:31:56.894Z,85.57
2023-01-28T07:35:59.723Z,85.38
2023-01-28T07:40:02.606Z,85.88
2023-01-28T07:44:06.949Z,85.92
2023-01-28T07:48:13.497Z,86.00
2023-01-28T07:52:16.248Z,85.99
2023-01-28T07:56:19.031Z,85.72
2023-01-28T08:00:24.409Z,85.19
2023-01-28T08:04:27.333Z,85.26
2023-01-28T08:08:30.195Z,85.41
2023-01-28T08:12:32.958Z,85.60
2023-01-28T08:16:37.095Z,84.83
2023-01-28T08:20:41.259Z,84.81
2023-01-28T08:24:44.041Z,84.85
2023-01-28T08:28:46.843Z,84.64
2023-01-28T08:32:51.003Z,84.72
2023-01-28T08:36:53.995Z,84.75
2023-01-28T08:40:58.921Z,85.12
2023-01-28T08:45:01.668Z,85.27
2023-01-28T08:49:05.906Z,84.75
2023-01-28T08:53:12.144Z,84.92
2023-01-28T08:57:15.089Z,84.58
2023-01-28T09:01:18.178Z,84.47
2023-01-28T09:05:23.045Z,84.53
2023-01-28T09:09:25.807Z,85.03
2023-01-28T09:13:30.020Z,85.11
2023-01-28T09:17:32.826Z,83.94
2023-01-28T09:21:39.470Z,84.17
2023-01-28T09:25:42.741Z,83.77
2023-01-28T09:29:45.533Z,83.78
2023-01-28T09:33:54.763Z,83.40
2023-01-28T09:38:00.098Z,83.95
2023-01-28T09:42:24.105Z,83.70
2023-01-28T09:46:32.819Z,83.78
2023-01-28T09:50:38.515Z,83.86
2023-01-28T09:54:46.150Z,83.83
2023-01-28T09:58:48.927Z,83.54
2023-01-28T10:03:25.730Z,82.65
2023-01-28T10:07:37.511Z,81.94
2023-01-28T10:11:55.713Z,82.48
2023-01-28T10:16:10.802Z,82.06
2023-01-28T10:20:22.766Z,80.13
2023-01-28T10:24:32.841Z,80.88
2023-01-28T10:28:37.576Z,80.55
2023-01-28T10:32:47.746Z,80.62
2023-01-28T10:36:52.433Z,79.29
2023-01-28T10:40:59.769Z,79.29
2023-01-28T10:45:09.925Z,78.73
2023-01-28T10:49:16.326Z,79.23
2023-01-28T10:53:19.346Z,79.96
2023-01-28T10:57:22.801Z,79.91
2023-01-28T11:01:38.732Z,79.49
2023-01-28T11:05:52.557Z,79.02
2023-01-28T11:09:55.344Z,79.56
2023-01-28T11:13:58.618Z,79.74
2023-01-28T11:18:06.204Z,80.09
2023-01-28T11:22:25.926Z,79.96
2023-01-28T11:26:32.206Z,80.03
2023-01-28T11:30:40.191Z,80.43
2023-01-28T11:34:51.239Z,78.75
2023-01-28T11:38:55.809Z,79.22
2023-01-28T11:42:59.742Z,79.59
2023-01-28T11:47:15.293Z,79.12
2023-01-28T11:51:30.628Z,80.03
2023-01-28T11:55:44.534Z,79.18
2023-01-28T12:00:00.673Z,79.41
2023-01-28T12:04:19.761Z,79.63
2023-01-28T12:08:27.304Z,79.61
2023-01-28T12:12:50.295Z,78.95
2023-01-28T12:17:03.217Z,78.96
2023-01-28T12:21:08.295Z,78.88
2023-01-28T12:25:25.976Z,79.92
2023-01-28T12:29:36.856Z,80.20
2023-01-28T12:34:00.495Z,79.61
2023-01-28T12:38:15.561Z,80.20
2023-01-28T12:42:28.537Z,79.86
2023-01-28T12:46:39.726Z,79.00
2023-01-28T12:50:46.631Z,78.77
2023-01-28T12:54:57.398Z,78.15
2023-01-28T12:59:06.724Z,77.94
2023-01-28T13:03:16.199Z,77.58
2023-01-28T13:07:26.362Z,77.26
2023-01-28T13:11:36.218Z,76.78
2023-01-28T13:15:43.291Z,76.48
2023-01-28T13:19:46.387Z,76.73
2023-01-28T13:23:50.815Z,76.29
2023-01-28T13:27:58.833Z,76.95
2023-01-28T13:32:24.857Z,76.36
2023-01-28T13:36:30.558Z,77.44
2023-01-28T13:40:34.157Z,78.29
2023-01-28T13:44:39.097Z,78.25
2023-01-28T13:48:49.132Z,77.97
2023-01-28T13:52:57.849Z,77.77
2023-01-28T13:57:22.735Z,77.95
2023-01-28T14:01:50.117Z,78.40
2023-01-28T14:06:21.809Z,78.28
2023-01-28T14:10:35.805Z,79.35
2023-01-28T14:14:54.988Z,79.60
2023-01-28T14:19:00.522Z,78.57
2023-01-28T14:23:07.080Z,78.74
2023-01-28T14:27:16.778Z,78.55
2023-01-28T14:31:28.209Z,78.63
2023-01-28T14:35:33.683Z,78.29
2023-01-28T14:39:44.717Z,78.17
2023-01-28T14:43:47.518Z,77.92
2023-01-28T14:48:09.674Z,79.19
2023-01-28T14:52:30.508Z,79.05
2023-01-28T14:56:47.648Z,78.50
2023-01-28T15:00:55.527Z,79.16
2023-01-28T15:05:09.596Z,78.98
2023-01-28T15:09:14.788Z,79.07
2023-01-28T15:13:26.321Z,78.99
2023-01-28T15:17:29.421Z,79.35
2023-01-28T15:21:33.362Z,79.72
2023-01-28T15:25:36.303Z,80.70
2023-01-28T15:29:40.445Z,81.02
2023-01-28T15:33:43.149Z,80.63
2023-01-28T15:37:45.892Z,81.49
2023-01-28T15:41:51.927Z,81.23
2023-01-28T15:45:58.228Z,81.72
2023-01-28T15:50:03.570Z,81.47
2023-01-28T15:54:10.673Z,81.82
2023-01-28T15:58:21.839Z,82.09
2023-01-28T16:02:29.129Z,81.90
2023-01-28T16:06:35.739Z,82.14
2023-01-28T16:10:39.080Z,82.76
2023-01-28T16:14:46.374Z,83.37
2023-01-28T16:18:55.906Z,83.88
2023-01-28T16:23:01.915Z,83.99
2023-01-28T16:27:07.907Z,84.33
2023-01-28T16:31:12.733Z,84.31
2023-01-28T16:35:19.993Z,84.66
2023-01-28T16:39:22.960Z,85.23
2023-01-28T16:43:26.035Z,85.50
2023-01-28T16:47:28.953Z,85.59
2023-01-28T16:51:33.384Z,86.28
2023-01-28T16:55:36.247Z,86.92
2023-01-28T16:59:39.041Z,87.73
2023-01-28T17:03:43.209Z,87.77
2023-01-28T17:07:49.382Z,88.09
2023-01-28T17:11:52.181Z,88.72
2023-01-28T17:15:56.159Z,89.08
2023-01-28T17:19:59.111Z,89.49
2023-01-28T17:24:03.812Z,89.77
2023-01-28T17:28:07.328Z,90.14
2023-01-28T17:32:19.003Z,90.51
2023-01-28T17:36:21.873Z,90.70
2023-01-28T17:40:26.303Z,90.88
2023-01-28T17:44:29.478Z,91.21
2023-01-28T17:48:32.412Z,91.29
2023-01-28T17:52:35.680Z,91.22
2023-01-28T17:56:40.349Z,91.75
2023-01-28T18:00:43.310Z,92.17
2023-01-28T18:04:46.230Z,91.99
2023-01-28T18:08:49.206Z,92.56
2023-01-28T18:12:53.613Z,92.65
2023-01-28T18:16:56.447Z,92.78
2023-01-28T18:20:59.650Z,93.08
2023-01-28T18:25:03.087Z,93.56
2023-01-28T18:29:07.955Z,93.33
2023-01-28T18:33:11.818Z,92.74
2023-01-28T18:37:14.740Z,92.83
2023-01-28T18:41:17.805Z,93.19
2023-01-28T18:45:22.505Z,92.96
2023-01-28T18:49:25.893Z,93.40
2023-01-28T18:53:31.734Z,93.03
2023-01-28T18:57:34.965Z,93.12
2023-01-28T19:01:40.230Z,92.66
2023-01-28T19:05:43.138Z,92.99
2023-01-28T19:09:46.277Z,93.59
2023-01-28T19:13:49.173Z,93.39
2023-01-28T19:17:54.404Z,93.05
2023-01-28T19:21:57.255Z,93.48
2023-01-28T19:26:03.584Z,93.90
2023-01-28T19:30:08.416Z,94.46
2023-01-28T19:34:13.049Z,94.24
2023-01-28T19:38:15.964Z,94.38
2023-01-28T19:42:19.060Z,94.36
2023-01-28T19:46:22.058Z,94.55
2023-01-28T19:50:26.425Z,94.49
2023-01-28T19:54:29.759Z,94.33
2023-01-28T19:58:35.177Z,94.59
2023-01-28T20:02:39.290Z,94.93
2023-01-28T20:06:43.569Z,95.66
2023-01-28T20:10:46.442Z,95.88
2023-01-28T20:14:49.431Z,95.84
2023-01-28T20:18:53.995Z,95.81
2023-01-28T20:22:58.317Z,95.91
2023-01-28T20:27:02.537Z,96.19
2023-01-28T20:31:07.555Z,95.92
2023-01-28T20:35:10.895Z,95.78
2023-01-28T20:39:15.557Z,96.00
2023-01-28T20:43:18.392Z,95.50
2023-01-28T20:47:21.328Z,96.09
2023-01-28T20:51:27.474Z,95.84
2023-01-28T20:55:32.727Z,96.27
2023-01-28T20:59:35.497Z,95.77
2023-01-28T21:03:38.581Z,95.74
2023-01-28T21:07:41.893Z,95.06
2023-01-28T21:11:46.198Z,95.03
2023-01-28T21:15:53.991Z,95.06
2023-01-28T21:19:57.034Z,95.44
2023-01-28T21:24:01.400Z,95.42
2023-01-28T21:28:06.059Z,95.03
2023-01-28T21:32:09.135Z,94.80
2023-01-28T21:36:14.937Z,94.89
2023-01-28T21:40:18.463Z,95.04
2023-01-28T21:44:23.133Z,94.82
2023-01-28T21:48:26.720Z,94.91
2023-01-28T21:52:29.902Z,94.50
2023-01-28T21:56:33.071Z,94.53
2023-01-28T22:00:38.490Z,94.43
2023-01-28T22:04:46.214Z,94.49
2023-01-28T22:08:49.217Z,94.50
2023-01-28T22:12:53.729Z,94.21
2023-01-28T22:16:58.283Z,94.64
2023-01-28T22:21:02.861Z,94.32
2023-01-28T22:25:06.784Z,94.68
2023-01-28T22:29:09.807Z,94.93
2023-01-28T22:33:14.584Z,94.82
2023-01-28T22:37:17.595Z,95.27
2023-01-28T22:41:23.396Z,95.19
2023-01-28T22:45:26.403Z,95.35
2023-01-28T22:49:30.715Z,95.44
2023-01-28T22:53:34.219Z,95.86
2023-01-28T22:57:37.256Z,95.71
2023-01-28T23:01:40.294Z,96.29
2023-01-28T23:05:44.844Z,96.09
2023-01-28T23:09:48.281Z,96.16
2023-01-28T23:14:09.439Z,96.37
2023-01-28T23:18:43.191Z,96.06
2023-01-28T23:23:05.183Z,96.12
2023-01-28T23:27:08.321Z,96.43
2023-01-28T23:31:11.252Z,96.49
2023-01-28T23:35:15.026Z,96.60
2023-01-28T23:39:19.645Z,97.49
2023-01-28T23:43:23.228Z,97.53
2023-01-28T23:47:26.230Z,97.70
2023-01-28T23:51:29.191Z,97.98
2023-01-28T23:55:33.579Z,97.78
2023-01-28T23:59:36.610Z,98.22
